sensor_id;sensor_type;location;lat;lon;timestamp;pressure;altitude;pressure_sealevel;temperature;humidity
57114;BME280;42994;51.606;9.988;2023-04-08T00:00:24;99540.97;;;3.99;100.00
57114;BME280;42994;51.606;9.988;2023-04-08T00:02:50;99553.22;;;3.90;100.00
57114;BME280;42994;51.606;9.988;2023-04-08T00:05:17;99552.97;;;3.93;100.00
57114;BME280;42994;51.606;9.988;2023-04-08T00:07:45;99550.88;;;3.97;100.00
57114;BME280;42994;51.606;9.988;2023-04-08T00:10:11;99546.84;;;3.93;100.00
57114;BME280;42994;51.606;9.988;2023-04-08T00:12:38;99529.94;;;3.94;100.00
57114;BME280;42994;51.606;9.988;2023-04-08T00:15:05;99536.09;;;3.94;100.00
57114;BME280;42994;51.606;9.988;2023-04-08T00:17:32;99541.53;;;3.93;100.00
57114;BME280;42994;51.606;9.988;2023-04-08T00:19:59;99539.16;;;3.99;100.00
57114;BME280;42994;51.606;9.988;2023-04-08T00:22:25;99535.66;;;3.99;100.00
57114;BME280;42994;51.606;9.988;2023-04-08T00:24:53;99539.16;;;3.99;100.00
57114;BME280;42994;51.606;9.988;2023-04-08T00:27:20;99541.94;;;3.98;100.00
57114;BME280;42994;51.606;9.988;2023-04-08T00:29:46;99544.75;;;3.96;100.00
57114;BME280;42994;51.606;9.988;2023-04-08T00:32:13;99540.28;;;3.97;100.00
57114;BME280;42994;51.606;9.988;2023-04-08T00:34:40;99537.50;;;3.98;100.00
57114;BME280;42994;51.606;9.988;2023-04-08T00:37:08;99544.59;;;3.98;100.00
57114;BME280;42994;51.606;9.988;2023-04-08T00:39:35;99539.44;;;3.96;100.00
57114;BME280;42994;51.606;9.988;2023-04-08T00:42:03;99538.47;;;3.97;100.00
57114;BME280;42994;51.606;9.988;2023-04-08T00:44:30;99538.75;;;3.94;100.00
57114;BME280;42994;51.606;9.988;2023-04-08T00:46:57;99538.19;;;4.00;100.00
57114;BME280;42994;51.606;9.988;2023-04-08T00:49:25;99535.28;;;4.03;100.00
57114;BME280;42994;51.606;9.988;2023-04-08T00:51:52;99535.84;;;4.07;100.00
57114;BME280;42994;51.606;9.988;2023-04-08T00:54:19;99533.31;;;4.06;100.00
57114;BME280;42994;51.606;9.988;2023-04-08T00:56:46;99533.19;;;4.07;100.00
57114;BME280;42994;51.606;9.988;2023-04-08T00:59:14;99535.69;;;4.09;100.00
57114;BME280;42994;51.606;9.988;2023-04-08T01:01:43;99534.16;;;4.06;100.00
57114;BME280;42994;51.606;9.988;2023-04-08T01:04:21;99525.50;;;4.14;100.00
57114;BME280;42994;51.606;9.988;2023-04-08T01:06:56;99533.31;;;4.15;100.00
57114;BME280;42994;51.606;9.988;2023-04-08T01:09:27;99536.41;;;4.11;100.00
57114;BME280;42994;51.606;9.988;2023-04-08T01:11:56;99520.34;;;4.22;100.00
57114;BME280;42994;51.606;9.988;2023-04-08T01:14:27;99528.16;;;4.14;100.00
57114;BME280;42994;51.606;9.988;2023-04-08T01:16:56;99527.19;;;4.15;100.00
57114;BME280;42994;51.606;9.988;2023-04-08T01:19:28;99527.72;;;4.09;100.00
57114;BME280;42994;51.606;9.988;2023-04-08T01:22:01;99524.81;;;4.12;100.00
57114;BME280;42994;51.606;9.988;2023-04-08T01:24:32;99522.16;;;4.12;100.00
57114;BME280;42994;51.606;9.988;2023-04-08T01:27:04;99521.03;;;4.14;100.00
57114;BME280;42994;51.606;9.988;2023-04-08T01:29:33;99516.41;;;4.07;100.00
57114;BME280;42994;51.606;9.988;2023-04-08T01:32:01;99524.09;;;4.10;100.00
57114;BME280;42994;51.606;9.988;2023-04-08T01:34:28;99508.59;;;4.05;100.00
57114;BME280;42994;51.606;9.988;2023-04-08T01:36:57;99516.28;;;4.18;100.00
57114;BME280;42994;51.606;9.988;2023-04-08T01:39:24;99521.75;;;4.16;100.00
57114;BME280;42994;51.606;9.988;2023-04-08T01:41:52;99530.09;;;4.21;100.00
57114;BME280;42994;51.606;9.988;2023-04-08T01:44:21;99525.22;;;4.17;100.00
57114;BME280;42994;51.606;9.988;2023-04-08T01:46:50;99520.75;;;4.17;100.00
57114;BME280;42994;51.606;9.988;2023-04-08T01:49:18;99516.00;;;4.21;100.00
57114;BME280;42994;51.606;9.988;2023-04-08T01:51:47;99517.41;;;4.15;100.00
57114;BME280;42994;51.606;9.988;2023-04-08T01:54:14;99518.09;;;4.08;100.00
57114;BME280;42994;51.606;9.988;2023-04-08T01:56:41;99519.94;;;4.17;100.00
57114;BME280;42994;51.606;9.988;2023-04-08T01:59:13;99518.38;;;4.14;100.00
57114;BME280;42994;51.606;9.988;2023-04-08T02:01:43;99510.72;;;4.21;100.00
57114;BME280;42994;51.606;9.988;2023-04-08T02:04:11;99513.78;;;4.26;100.00
57114;BME280;42994;51.606;9.988;2023-04-08T02:06:38;99517.66;;;4.12;100.00
57114;BME280;42994;51.606;9.988;2023-04-08T02:09:04;99512.53;;;4.20;100.00
57114;BME280;42994;51.606;9.988;2023-04-08T02:11:32;99519.38;;;4.13;100.00
57114;BME280;42994;51.606;9.988;2023-04-08T02:13:58;99522.59;;;4.17;100.00
57114;BME280;42994;51.606;9.988;2023-04-08T02:16:29;99524.94;;;4.10;100.00
57114;BME280;42994;51.606;9.988;2023-04-08T02:19:14;99517.00;;;4.20;100.00
57114;BME280;42994;51.606;9.988;2023-04-08T02:21:45;99517.97;;;4.19;100.00
57114;BME280;42994;51.606;9.988;2023-04-08T02:24:16;99512.94;;;4.16;100.00
57114;BME280;42994;51.606;9.988;2023-04-08T02:26:44;99517.56;;;4.23;100.00
57114;BME280;42994;51.606;9.988;2023-04-08T02:29:14;99520.09;;;4.35;100.00
57114;BME280;42994;51.606;9.988;2023-04-08T02:31:42;99526.78;;;4.29;100.00
57114;BME280;42994;51.606;9.988;2023-04-08T02:34:11;99524.97;;;4.20;100.00
57114;BME280;42994;51.606;9.988;2023-04-08T02:36:39;99528.19;;;4.23;100.00
57114;BME280;42994;51.606;9.988;2023-04-08T02:39:10;99520.63;;;4.09;100.00
57114;BME280;42994;51.606;9.988;2023-04-08T02:41:37;99510.66;;;4.01;100.00
57114;BME280;42994;51.606;9.988;2023-04-08T02:44:04;99513.63;;;4.08;100.00
57114;BME280;42994;51.606;9.988;2023-04-08T02:46:31;99518.81;;;4.10;100.00
57114;BME280;42994;51.606;9.988;2023-04-08T02:48:57;99513.63;;;3.98;100.00
57114;BME280;42994;51.606;9.988;2023-04-08T02:51:26;99507.63;;;4.06;100.00
57114;BME280;42994;51.606;9.988;2023-04-08T02:53:52;99508.06;;;4.11;100.00
57114;BME280;42994;51.606;9.988;2023-04-08T02:56:19;99507.34;;;4.09;100.00
57114;BME280;42994;51.606;9.988;2023-04-08T02:58:46;99511.53;;;4.02;100.00
57114;BME280;42994;51.606;9.988;2023-04-08T03:01:13;99505.38;;;4.01;100.00
57114;BME280;42994;51.606;9.988;2023-04-08T03:03:39;99510.53;;;3.93;100.00
57114;BME280;42994;51.606;9.988;2023-04-08T03:06:06;99512.22;;;4.04;100.00
57114;BME280;42994;51.606;9.988;2023-04-08T03:08:34;99515.59;;;4.06;100.00
57114;BME280;42994;51.606;9.988;2023-04-08T03:11:01;99521.19;;;4.13;100.00
57114;BME280;42994;51.606;9.988;2023-04-08T03:13:27;99517.13;;;4.18;100.00
57114;BME280;42994;51.606;9.988;2023-04-08T03:15:54;99521.59;;;3.98;100.00
57114;BME280;42994;51.606;9.988;2023-04-08T03:18:21;99515.44;;;4.08;100.00
57114;BME280;42994;51.606;9.988;2023-04-08T03:20:48;99521.03;;;4.04;100.00
57114;BME280;42994;51.606;9.988;2023-04-08T03:23:14;99525.78;;;4.11;100.00
57114;BME280;42994;51.606;9.988;2023-04-08T03:25:42;99532.50;;;4.15;100.00
57114;BME280;42994;51.606;9.988;2023-04-08T03:28:09;99523.53;;;4.06;100.00
57114;BME280;42994;51.606;9.988;2023-04-08T03:30:35;99520.31;;;4.12;100.00
57114;BME280;42994;51.606;9.988;2023-04-08T03:33:02;99527.19;;;4.15;100.00
57114;BME280;42994;51.606;9.988;2023-04-08T03:35:32;99528.03;;;4.15;100.00
57114;BME280;42994;51.606;9.988;2023-04-08T03:37:58;99535.84;;;4.17;100.00
57114;BME280;42994;51.606;9.988;2023-04-08T03:40:25;99543.81;;;4.17;100.00
57114;BME280;42994;51.606;9.988;2023-04-08T03:42:53;99536.69;;;4.17;100.00
57114;BME280;42994;51.606;9.988;2023-04-08T03:45:20;99539.19;;;4.09;100.00
57114;BME280;42994;51.606;9.988;2023-04-08T03:47:46;99528.13;;;3.94;100.00
57114;BME280;42994;51.606;9.988;2023-04-08T03:50:13;99518.22;;;3.96;100.00
57114;BME280;42994;51.606;9.988;2023-04-08T03:52:40;99523.22;;;3.90;100.00
57114;BME280;42994;51.606;9.988;2023-04-08T03:55:07;99526.88;;;3.98;100.00
57114;BME280;42994;51.606;9.988;2023-04-08T03:57:34;99533.97;;;3.98;100.00
57114;BME280;42994;51.606;9.988;2023-04-08T04:00:02;99530.63;;;3.96;100.00
57114;BME280;42994;51.606;9.988;2023-04-08T04:02:37;99534.28;;;4.04;100.00
57114;BME280;42994;51.606;9.988;2023-04-08T04:05:04;99534.03;;;4.08;100.00
57114;BME280;42994;51.606;9.988;2023-04-08T04:07:31;99532.31;;;3.97;100.00
57114;BME280;42994;51.606;9.988;2023-04-08T04:09:57;99542.50;;;4.01;100.00
57114;BME280;42994;51.606;9.988;2023-04-08T04:12:24;99542.94;;;4.07;100.00
57114;BME280;42994;51.606;9.988;2023-04-08T04:14:51;99544.50;;;4.09;100.00
57114;BME280;42994;51.606;9.988;2023-04-08T04:17:19;99552.59;;;4.17;100.00
57114;BME280;42994;51.606;9.988;2023-04-08T04:19:46;99555.13;;;4.09;100.00
57114;BME280;42994;51.606;9.988;2023-04-08T04:22:12;99559.16;;;4.13;100.00
57114;BME280;42994;51.606;9.988;2023-04-08T04:24:39;99560.44;;;4.19;100.00
57114;BME280;42994;51.606;9.988;2023-04-08T04:27:06;99565.16;;;4.15;100.00
57114;BME280;42994;51.606;9.988;2023-04-08T04:29:32;99564.78;;;4.30;100.00
57114;BME280;42994;51.606;9.988;2023-04-08T04:31:59;99566.44;;;4.31;100.00
57114;BME280;42994;51.606;9.988;2023-04-08T04:34:27;99571.34;;;4.35;100.00
57114;BME280;42994;51.606;9.988;2023-04-08T04:36:53;99580.56;;;4.31;100.00
57114;BME280;42994;51.606;9.988;2023-04-08T04:39:20;99568.78;;;4.14;100.00
57114;BME280;42994;51.606;9.988;2023-04-08T04:41:47;99571.16;;;4.08;100.00
57114;BME280;42994;51.606;9.988;2023-04-08T04:44:14;99577.59;;;4.15;100.00
57114;BME280;42994;51.606;9.988;2023-04-08T04:46:41;99580.25;;;4.24;100.00
57114;BME280;42994;51.606;9.988;2023-04-08T04:49:07;99571.75;;;4.21;100.00
57114;BME280;42994;51.606;9.988;2023-04-08T04:51:35;99574.22;;;4.03;100.00
57114;BME280;42994;51.606;9.988;2023-04-08T04:54:02;99576.59;;;4.06;100.00
57114;BME280;42994;51.606;9.988;2023-04-08T04:56:28;99575.78;;;4.06;100.00
57114;BME280;42994;51.606;9.988;2023-04-08T04:58:55;99576.59;;;4.06;100.00
57114;BME280;42994;51.606;9.988;2023-04-08T05:01:22;99573.25;;;4.04;100.00
57114;BME280;42994;51.606;9.988;2023-04-08T05:03:48;99579.50;;;4.03;100.00
57114;BME280;42994;51.606;9.988;2023-04-08T05:06:15;99579.25;;;4.06;100.00
57114;BME280;42994;51.606;9.988;2023-04-08T05:08:43;99579.25;;;4.06;100.00
57114;BME280;42994;51.606;9.988;2023-04-08T05:11:09;99573.63;;;3.99;100.00
57114;BME280;42994;51.606;9.988;2023-04-08T05:13:36;99581.03;;;3.96;100.00
57114;BME280;42994;51.606;9.988;2023-04-08T05:16:03;99588.59;;;4.00;100.00
57114;BME280;42994;51.606;9.988;2023-04-08T05:18:30;99590.25;;;4.01;100.00
57114;BME280;42994;51.606;9.988;2023-04-08T05:20:57;99581.88;;;3.96;100.00
57114;BME280;42994;51.606;9.988;2023-04-08T05:23:24;99588.72;;;3.99;100.00
57114;BME280;42994;51.606;9.988;2023-04-08T05:25:52;99592.22;;;3.99;100.00
57114;BME280;42994;51.606;9.988;2023-04-08T05:28:19;99593.63;;;4.03;100.00
57114;BME280;42994;51.606;9.988;2023-04-08T05:30:48;99599.50;;;4.07;100.00
57114;BME280;42994;51.606;9.988;2023-04-08T05:33:14;99595.03;;;4.08;100.00
57114;BME280;42994;51.606;9.988;2023-04-08T05:35:41;99599.22;;;4.00;100.00
57114;BME280;42994;51.606;9.988;2023-04-08T05:38:08;99600.28;;;3.98;100.00
57114;BME280;42994;51.606;9.988;2023-04-08T05:40:34;99600.97;;;3.90;100.00
57114;BME280;42994;51.606;9.988;2023-04-08T05:43:02;99595.16;;;3.96;100.00
57114;BME280;42994;51.606;9.988;2023-04-08T05:45:29;99603.38;;;3.93;100.00
57114;BME280;42994;51.606;9.988;2023-04-08T05:47:56;99602.94;;;3.98;100.00
57114;BME280;42994;51.606;9.988;2023-04-08T05:50:22;99604.94;;;4.06;100.00
57114;BME280;42994;51.606;9.988;2023-04-08T05:52:49;99604.50;;;4.00;100.00
57114;BME280;42994;51.606;9.988;2023-04-08T05:55:16;99598.09;;;4.03;100.00
57114;BME280;42994;51.606;9.988;2023-04-08T05:57:42;99603.38;;;4.03;100.00
57114;BME280;42994;51.606;9.988;2023-04-08T06:00:11;99595.16;;;3.96;100.00
57114;BME280;42994;51.606;9.988;2023-04-08T06:02:37;99602.41;;;3.94;100.00
57114;BME280;42994;51.606;9.988;2023-04-08T06:05:04;99598.75;;;3.85;100.00
57114;BME280;42994;51.606;9.988;2023-04-08T06:07:31;99598.06;;;3.93;100.00
57114;BME280;42994;51.606;9.988;2023-04-08T06:09:58;99600.03;;;4.01;100.00
57114;BME280;42994;51.606;9.988;2023-04-08T06:12:24;99607.56;;;3.96;100.00
57114;BME280;42994;51.606;9.988;2023-04-08T06:14:52;99604.38;;;4.02;100.00
57114;BME280;42994;51.606;9.988;2023-04-08T06:17:21;99609.56;;;4.03;100.00
57114;BME280;42994;51.606;9.988;2023-04-08T06:19:47;99612.78;;;4.07;100.00
57114;BME280;42994;51.606;9.988;2023-04-08T06:22:14;99617.09;;;4.18;100.00
57114;BME280;42994;51.606;9.988;2023-04-08T06:24:41;99614.31;;;4.19;100.00
57114;BME280;42994;51.606;9.988;2023-04-08T06:27:07;99618.41;;;4.23;100.00
57114;BME280;42994;51.606;9.988;2023-04-08T06:29:34;99625.50;;;4.23;100.00
57114;BME280;42994;51.606;9.988;2023-04-08T06:32:01;99619.50;;;4.21;100.00
57114;BME280;42994;51.606;9.988;2023-04-08T06:34:29;99611.53;;;4.21;100.00
57114;BME280;42994;51.606;9.988;2023-04-08T06:36:55;99612.09;;;4.15;100.00
57114;BME280;42994;51.606;9.988;2023-04-08T06:39:22;99619.75;;;4.18;100.00
57114;BME280;42994;51.606;9.988;2023-04-08T06:41:49;99626.06;;;4.27;100.00
57114;BME280;42994;51.606;9.988;2023-04-08T06:44:27;99628.09;;;4.44;100.00
57114;BME280;42994;51.606;9.988;2023-04-08T06:46:54;99630.28;;;4.29;100.00
57114;BME280;42994;51.606;9.988;2023-04-08T06:49:21;99641.75;;;4.30;100.00
57114;BME280;42994;51.606;9.988;2023-04-08T06:51:49;99643.69;;;4.28;100.00
57114;BME280;42994;51.606;9.988;2023-04-08T06:54:16;99640.03;;;4.29;100.00
57114;BME280;42994;51.606;9.988;2023-04-08T06:56:42;99640.47;;;4.34;100.00
57114;BME280;42994;51.606;9.988;2023-04-08T06:59:09;99640.34;;;4.45;100.00
57114;BME280;42994;51.606;9.988;2023-04-08T07:01:35;99648.75;;;4.40;100.00
57114;BME280;42994;51.606;9.988;2023-04-08T07:04:02;99655.72;;;4.41;100.00
57114;BME280;42994;51.606;9.988;2023-04-08T07:06:29;99652.41;;;4.49;100.00
57114;BME280;42994;51.606;9.988;2023-04-08T07:08:57;99647.94;;;4.50;100.00
57114;BME280;42994;51.606;9.988;2023-04-08T07:11:23;99654.34;;;4.47;100.00
57114;BME280;42994;51.606;9.988;2023-04-08T07:13:50;99650.84;;;4.47;100.00
57114;BME280;42994;51.606;9.988;2023-04-08T07:16:17;99658.28;;;4.53;100.00
57114;BME280;42994;51.606;9.988;2023-04-08T07:18:44;99652.09;;;4.42;100.00
57114;BME280;42994;51.606;9.988;2023-04-08T07:21:11;99661.34;;;4.58;100.00
57114;BME280;42994;51.606;9.988;2023-04-08T07:23:38;99664.28;;;4.55;100.00
57114;BME280;42994;51.606;9.988;2023-04-08T07:26:06;99675.88;;;4.63;100.00
57114;BME280;42994;51.606;9.988;2023-04-08T07:28:33;99669.16;;;4.50;100.00
57114;BME280;42994;51.606;9.988;2023-04-08T07:31:10;99671.13;;;4.48;100.00
57114;BME280;42994;51.606;9.988;2023-04-08T07:33:37;99669.97;;;4.40;100.00
57114;BME280;42994;51.606;9.988;2023-04-08T07:36:04;99662.03;;;4.40;100.00
57114;BME280;42994;51.606;9.988;2023-04-08T07:38:31;99674.75;;;4.47;100.00
57114;BME280;42994;51.606;9.988;2023-04-08T07:40:57;99680.75;;;4.49;100.00
57114;BME280;42994;51.606;9.988;2023-04-08T07:43:25;99685.94;;;4.50;100.00
57114;BME280;42994;51.606;9.988;2023-04-08T07:45:52;99689.41;;;4.51;100.00
57114;BME280;42994;51.606;9.988;2023-04-08T07:48:18;99687.63;;;4.51;100.00
57114;BME280;42994;51.606;9.988;2023-04-08T07:50:45;99688.00;;;4.47;100.00
57114;BME280;42994;51.606;9.988;2023-04-08T07:53:12;99690.97;;;4.53;100.00
57114;BME280;42994;51.606;9.988;2023-04-08T07:55:39;99689.00;;;4.55;100.00
57114;BME280;42994;51.606;9.988;2023-04-08T07:58:06;99691.50;;;4.47;100.00
57114;BME280;42994;51.606;9.988;2023-04-08T08:00:34;99693.75;;;4.52;100.00
57114;BME280;42994;51.606;9.988;2023-04-08T08:03:01;99697.69;;;4.57;100.00
57114;BME280;42994;51.606;9.988;2023-04-08T08:05:27;99692.63;;;4.54;100.00
57114;BME280;42994;51.606;9.988;2023-04-08T08:07:54;99693.63;;;4.53;100.00
57114;BME280;42994;51.606;9.988;2023-04-08T08:10:21;99692.94;;;4.51;100.00
57114;BME280;42994;51.606;9.988;2023-04-08T08:12:47;99691.50;;;4.47;100.00
57114;BME280;42994;51.606;9.988;2023-04-08T08:15:14;99696.53;;;4.50;100.00
57114;BME280;42994;51.606;9.988;2023-04-08T08:17:42;99704.56;;;4.60;100.00
57114;BME280;42994;51.606;9.988;2023-04-08T08:20:09;99684.66;;;4.54;100.00
57114;BME280;42994;51.606;9.988;2023-04-08T08:22:36;99700.91;;;4.61;100.00
57114;BME280;42994;51.606;9.988;2023-04-08T08:25:04;99694.91;;;4.59;100.00
57114;BME280;42994;51.606;9.988;2023-04-08T08:27:31;99694.06;;;4.58;100.00
57114;BME280;42994;51.606;9.988;2023-04-08T08:29:59;99707.09;;;4.71;100.00
57114;BME280;42994;51.606;9.988;2023-04-08T08:32:25;99703.31;;;4.74;100.00
57114;BME280;42994;51.606;9.988;2023-04-08T08:34:53;99706.25;;;4.80;100.00
57114;BME280;42994;51.606;9.988;2023-04-08T08:37:20;99713.09;;;4.73;100.00
57114;BME280;42994;51.606;9.988;2023-04-08T08:39:46;99716.31;;;4.77;100.00
57114;BME280;42994;51.606;9.988;2023-04-08T08:42:19;99717.84;;;4.79;100.00
57114;BME280;42994;51.606;9.988;2023-04-08T08:44:47;99718.84;;;4.78;100.00
57114;BME280;42994;51.606;9.988;2023-04-08T08:47:14;99711.56;;;4.80;100.00
57114;BME280;42994;51.606;9.988;2023-04-08T08:49:41;99718.56;;;4.81;100.00
57114;BME280;42994;51.606;9.988;2023-04-08T08:52:09;99737.31;;;4.90;100.00
57114;BME280;42994;51.606;9.988;2023-04-08T08:54:36;99733.78;;;4.79;100.00
57114;BME280;42994;51.606;9.988;2023-04-08T08:57:03;99734.97;;;5.06;100.00
57114;BME280;42994;51.606;9.988;2023-04-08T08:59:29;99747.16;;;5.18;100.00
57114;BME280;42994;51.606;9.988;2023-04-08T09:01:56;99745.03;;;5.03;100.00
57114;BME280;42994;51.606;9.988;2023-04-08T09:04:23;99740.53;;;5.03;100.00
57114;BME280;42994;51.606;9.988;2023-04-08T09:07:07;99740.13;;;5.08;100.00
57114;BME280;42994;51.606;9.988;2023-04-08T09:09:47;99747.53;;;5.04;100.00
57114;BME280;42994;51.606;9.988;2023-04-08T09:12:14;99758.19;;;5.04;100.00
57114;BME280;42994;51.606;9.988;2023-04-08T09:14:40;99752.84;;;5.04;100.00
57114;BME280;42994;51.606;9.988;2023-04-08T09:17:08;99746.13;;;5.00;100.00
57114;BME280;42994;51.606;9.988;2023-04-08T09:19:34;99757.03;;;4.97;100.00
57114;BME280;42994;51.606;9.988;2023-04-08T09:22:05;99743.88;;;4.95;100.00
57114;BME280;42994;51.606;9.988;2023-04-08T09:24:32;99751.03;;;5.05;100.00
57114;BME280;42994;51.606;9.988;2023-04-08T09:27:00;99752.16;;;5.12;100.00
57114;BME280;42994;51.606;9.988;2023-04-08T09:29:27;99754.38;;;4.97;100.00
57114;BME280;42994;51.606;9.988;2023-04-08T09:31:54;99752.44;;;4.99;100.00
57114;BME280;42994;51.606;9.988;2023-04-08T09:34:22;99744.44;;;4.89;100.00
57114;BME280;42994;51.606;9.988;2023-04-08T09:36:48;99743.63;;;4.98;100.00
57114;BME280;42994;51.606;9.988;2023-04-08T09:39:15;99750.91;;;5.06;100.00
57114;BME280;42994;51.606;9.988;2023-04-08T09:41:43;99746.28;;;4.98;100.00
57114;BME280;42994;51.606;9.988;2023-04-08T09:44:11;99748.50;;;5.03;100.00
57114;BME280;42994;51.606;9.988;2023-04-08T09:46:39;99742.22;;;5.04;100.00
57114;BME280;42994;51.606;9.988;2023-04-08T09:49:12;99738.88;;;5.12;100.00
57114;BME280;42994;51.606;9.988;2023-04-08T09:51:41;99742.78;;;5.27;100.00
57114;BME280;42994;51.606;9.988;2023-04-08T09:54:13;99742.94;;;5.45;100.00
57114;BME280;42994;51.606;9.988;2023-04-08T09:56:43;99753.97;;;5.31;100.00
57114;BME280;42994;51.606;9.988;2023-04-08T09:59:16;99758.47;;;5.40;100.00
57114;BME280;42994;51.606;9.988;2023-04-08T10:01:54;99768.25;;;5.49;100.00
57114;BME280;42994;51.606;9.988;2023-04-08T10:04:25;99776.38;;;5.57;100.00
57114;BME280;42994;51.606;9.988;2023-04-08T10:06:57;99781.41;;;5.51;100.00
57114;BME280;42994;51.606;9.988;2023-04-08T10:09:27;99775.97;;;5.43;100.00
57114;BME280;42994;51.606;9.988;2023-04-08T10:11:55;99778.19;;;5.37;100.00
57114;BME280;42994;51.606;9.988;2023-04-08T10:14:23;99765.88;;;5.27;100.00
57114;BME280;42994;51.606;9.988;2023-04-08T10:17:25;99775.97;;;5.43;100.00
57114;BME280;42994;51.606;9.988;2023-04-08T10:19:53;99769.66;;;5.44;100.00
57114;BME280;42994;51.606;9.988;2023-04-08T10:22:46;99765.47;;;5.51;100.00
57114;BME280;42994;51.606;9.988;2023-04-08T10:25:30;99767.97;;;5.62;100.00
57114;BME280;42994;51.606;9.988;2023-04-08T10:27:57;99765.16;;;5.64;100.00
57114;BME280;42994;51.606;9.988;2023-04-08T10:30:42;99766.00;;;5.74;100.00
57114;BME280;42994;51.606;9.988;2023-04-08T10:33:10;99769.38;;;5.76;100.00
57114;BME280;42994;51.606;9.988;2023-04-08T10:35:40;99764.47;;;5.81;100.00
57114;BME280;42994;51.606;9.988;2023-04-08T10:38:07;99772.03;;;5.56;100.00
57114;BME280;42994;51.606;9.988;2023-04-08T10:40:35;99752.97;;;5.71;100.00
57114;BME280;42994;51.606;9.988;2023-04-08T10:43:03;99759.16;;;5.62;100.00
57114;BME280;42994;51.606;9.988;2023-04-08T10:45:30;99750.03;;;5.84;100.00
57114;BME280;42994;51.606;9.988;2023-04-08T10:48:10;99759.84;;;5.83;100.00
57114;BME280;42994;51.606;9.988;2023-04-08T10:50:37;99754.94;;;5.78;100.00
57114;BME280;42994;51.606;9.988;2023-04-08T10:53:05;99752.13;;;6.00;100.00
57114;BME280;42994;51.606;9.988;2023-04-08T10:55:32;99754.78;;;6.00;100.00
57114;BME280;42994;51.606;9.988;2023-04-08T10:58:04;99768.75;;;6.21;100.00
57114;BME280;42994;51.606;9.988;2023-04-08T11:00:35;99766.66;;;6.15;100.00
57114;BME280;42994;51.606;9.988;2023-04-08T11:03:06;99762.06;;;6.07;100.00
57114;BME280;42994;51.606;9.988;2023-04-08T11:05:33;99764.28;;;6.12;100.00
57114;BME280;42994;51.606;9.988;2023-04-08T11:08:01;99771.59;;;6.10;100.00
57114;BME280;42994;51.606;9.988;2023-04-08T11:10:28;99773.09;;;6.12;100.00
57114;BME280;42994;51.606;9.988;2023-04-08T11:12:55;99764.84;;;6.06;100.00
57114;BME280;42994;51.606;9.988;2023-04-08T11:15:23;99766.69;;;6.05;100.00
57114;BME280;42994;51.606;9.988;2023-04-08T11:17:50;99777.47;;;6.04;100.00
57114;BME280;42994;51.606;9.988;2023-04-08T11:20:19;99763.75;;;5.99;100.00
57114;BME280;42994;51.606;9.988;2023-04-08T11:22:47;99774.66;;;6.05;100.00
57114;BME280;42994;51.606;9.988;2023-04-08T11:25:14;99776.47;;;6.14;100.00
57114;BME280;42994;51.606;9.988;2023-04-08T11:27:41;99778.69;;;6.19;100.00
57114;BME280;42994;51.606;9.988;2023-04-08T11:30:08;99781.78;;;6.24;100.00
57114;BME280;42994;51.606;9.988;2023-04-08T11:32:36;99782.94;;;6.12;100.00
57114;BME280;42994;51.606;9.988;2023-04-08T11:35:04;99772.50;;;6.28;100.00
57114;BME280;42994;51.606;9.988;2023-04-08T11:37:40;99787.09;;;6.14;100.00
57114;BME280;42994;51.606;9.988;2023-04-08T11:40:08;99788.03;;;6.43;100.00
57114;BME280;42994;51.606;9.988;2023-04-08T11:42:34;99787.13;;;6.52;100.00
57114;BME280;42994;51.606;9.988;2023-04-08T11:45:09;99789.13;;;6.40;100.00
57114;BME280;42994;51.606;9.988;2023-04-08T11:47:36;99782.78;;;6.51;100.00
57114;BME280;42994;51.606;9.988;2023-04-08T11:50:04;99784.13;;;6.37;100.00
57114;BME280;42994;51.606;9.988;2023-04-08T11:52:43;99785.31;;;6.52;100.00
57114;BME280;42994;51.606;9.988;2023-04-08T11:55:10;99793.03;;;6.46;100.00
57114;BME280;42994;51.606;9.988;2023-04-08T11:57:37;99793.25;;;6.62;100.00
57114;BME280;42994;51.606;9.988;2023-04-08T12:00:04;99791.94;;;6.76;100.00
57114;BME280;42994;51.606;9.988;2023-04-08T12:02:36;99775.13;;;6.76;100.00
57114;BME280;42994;51.606;9.988;2023-04-08T12:05:03;99789.00;;;6.97;100.00
57114;BME280;42994;51.606;9.988;2023-04-08T12:07:29;99796.72;;;7.00;100.00
57114;BME280;42994;51.606;9.988;2023-04-08T12:09:57;99783.66;;;6.79;100.00
57114;BME280;42994;51.606;9.988;2023-04-08T12:12:24;99789.31;;;6.66;100.00
57114;BME280;42994;51.606;9.988;2023-04-08T12:14:51;99792.69;;;6.68;100.00
57114;BME280;42994;51.606;9.988;2023-04-08T12:17:18;99796.69;;;6.45;100.00
57114;BME280;42994;51.606;9.988;2023-04-08T12:19:44;99791.66;;;6.79;100.00
57114;BME280;42994;51.606;9.988;2023-04-08T12:22:11;99807.44;;;6.90;100.00
57114;BME280;42994;51.606;9.988;2023-04-08T12:24:38;99803.13;;;7.07;100.00
57114;BME280;42994;51.606;9.988;2023-04-08T12:27:06;99815.56;;;7.17;100.00
57114;BME280;42994;51.606;9.988;2023-04-08T12:29:32;99815.94;;;7.22;100.00
57114;BME280;42994;51.606;9.988;2023-04-08T12:31:59;99813.88;;;7.34;100.00
57114;BME280;42994;51.606;9.988;2023-04-08T12:34:26;99811.31;;;6.96;100.00
57114;BME280;42994;51.606;9.988;2023-04-08T12:36:53;99815.16;;;7.11;100.00
57114;BME280;42994;51.606;9.988;2023-04-08T12:39:21;99804.97;;;7.07;100.00
57114;BME280;42994;51.606;9.988;2023-04-08T12:41:47;99805.19;;;6.86;100.00
57114;BME280;42994;51.606;9.988;2023-04-08T12:44:15;99805.88;;;6.88;100.00
57114;BME280;42994;51.606;9.988;2023-04-08T12:46:42;99793.53;;;7.15;100.00
57114;BME280;42994;51.606;9.988;2023-04-08T12:49:08;99798.03;;;7.14;100.00
57114;BME280;42994;51.606;9.988;2023-04-08T12:51:36;99801.94;;;7.20;100.00
57114;BME280;42994;51.606;9.988;2023-04-08T12:54:03;99802.16;;;7.44;100.00
57114;BME280;42994;51.606;9.988;2023-04-08T12:56:30;99810.50;;;7.13;100.00
57114;BME280;42994;51.606;9.988;2023-04-08T12:58:57;99809.09;;;7.37;100.00
57114;BME280;42994;51.606;9.988;2023-04-08T13:01:26;99817.03;;;7.29;100.00
57114;BME280;42994;51.606;9.988;2023-04-08T13:03:53;99811.47;;;7.40;100.00